KDCU/DCU METAR and TAF weather

Enter ICAO airport designator
Station Type Date Time Source
KDCU METAR 2021/04/13 21:53 UTC NOAA

KDCU 132153Z AUTO 19003KT 10SM CLR 28/07 A3000 RMK AO2 SLP155 T02780072


Station Type Date Time Source
KDCU Decoded METAR 2021/04/13 21:53 UTC NOAA

PRYOR FIELD, AL, United States (KDCU) 34-39N 086-57W 176M
Apr 13, 2021 - 05:53 PM EDT / 2021.04.13 2153 UTC
Wind: from the S (190 degrees) at 3 MPH (3 KT):0
Visibility: 10 mile(s):0
Sky conditions: clear
Temperature: 82.0 F (27.8 C)
Dew Point: 45.0 F (7.2 C)
Relative Humidity: 27%
Pressure (altimeter): 30 in. Hg (1015 hPa)
ob: KDCU 132153Z AUTO 19003KT 10SM CLR 28/07 A3000 RMK AO2 SLP155 T02780072
cycle: 22

Station Type Date Time Source
KDCU TAF UTC NOAA

Error!

Example: see airport list